Time;durP1;ratioP1;P1;durP2;ratioP2;P2;SDS_P1;SDS_P2;PMS_P1;PMS_P2;Temp;Humidity;BMP_temperature;BMP_pressure;BME280_temperature;BME280_humidity;BME280_pressure;Samples;Min_cycle;Max_cycle;Signal;HPM_P1;HPM_P2
2021/05/21 00:00:42;;;;;;;12.27;9.38;;;10.50;99.90;;;;;;5055544;28;20025;-71
2021/05/21 00:03:08;;;;;;;15.40;10.15;;;10.50;99.90;;;;;;5055632;28;20063;-74
2021/05/21 00:05:34;;;;;;;10.10;8.68;;;10.50;99.90;;;;;;5055539;28;20021;-73
2021/05/21 00:08:00;;;;;;;10.52;9.50;;;10.40;99.90;;;;;;5055600;28;20025;-73
2021/05/21 00:10:26;;;;;;;17.23;13.38;;;10.40;99.90;;;;;;5055244;28;20032;-74
2021/05/21 00:12:53;;;;;;;13.02;10.63;;;10.30;99.90;;;;;;5055236;28;20483;-74
2021/05/21 00:15:19;;;;;;;12.02;8.27;;;10.30;99.90;;;;;;5054155;28;20099;-73
2021/05/21 00:17:45;;;;;;;11.60;8.25;;;10.30;99.90;;;;;;5055047;28;20498;-74
2021/05/21 00:20:12;;;;;;;10.63;8.27;;;10.20;99.90;;;;;;5055318;28;20021;-74
2021/05/21 00:22:38;;;;;;;9.00;8.07;;;10.20;99.90;;;;;;5055085;28;20021;-72
2021/05/21 00:25:05;;;;;;;10.25;8.10;;;10.20;99.90;;;;;;5054502;28;20104;-74
2021/05/21 00:27:31;;;;;;;10.30;8.57;;;10.20;99.90;;;;;;5054972;28;20021;-73
2021/05/21 00:29:57;;;;;;;9.60;7.90;;;10.10;99.90;;;;;;5054593;28;20526;-73
2021/05/21 00:32:23;;;;;;;10.05;8.48;;;10.20;99.90;;;;;;5055165;28;20017;-74
2021/05/21 00:34:48;;;;;;;9.80;8.27;;;10.10;99.90;;;;;;5055089;28;20032;-74
2021/05/21 00:37:14;;;;;;;9.15;8.10;;;10.10;99.90;;;;;;5053679;28;20025;-73
2021/05/21 00:39:40;;;;;;;9.93;7.88;;;10.20;99.90;;;;;;5054774;28;20610;-73
2021/05/21 00:42:09;;;;;;;11.05;8.52;;;10.00;99.90;;;;;;5053542;28;20021;-74
2021/05/21 00:44:35;;;;;;;9.13;8.07;;;10.10;99.90;;;;;;5054566;28;20068;-73
2021/05/21 00:47:02;;;;;;;7.82;6.93;;;10.10;99.90;;;;;;5053441;28;20056;-74
2021/05/21 00:49:28;;;;;;;12.98;7.57;;;10.10;99.90;;;;;;5054590;28;20397;-74
2021/05/21 00:51:53;;;;;;;7.80;6.78;;;10.10;99.90;;;;;;5054742;28;20050;-73
2021/05/21 00:54:20;;;;;;;7.43;6.65;;;10.10;99.90;;;;;;5054968;28;20031;-73
2021/05/21 00:56:47;;;;;;;9.52;7.50;;;10.10;99.90;;;;;;5054615;28;20024;-74
2021/05/21 00:59:14;;;;;;;9.43;7.47;;;10.10;99.90;;;;;;5054558;28;20414;-74
2021/05/21 01:01:40;;;;;;;7.38;6.60;;;10.10;99.90;;;;;;5054621;28;20470;-73
2021/05/21 01:04:06;;;;;;;9.23;7.07;;;10.10;99.90;;;;;;5054653;28;20013;-74
2021/05/21 01:06:33;;;;;;;10.10;7.80;;;10.10;99.90;;;;;;5054626;28;20028;-74
2021/05/21 01:08:59;;;;;;;10.48;7.80;;;10.10;99.90;;;;;;5054392;28;20036;-74
2021/05/21 01:11:28;;;;;;;9.77;7.45;;;9.90;99.90;;;;;;5052933;28;20371;-73
2021/05/21 01:13:54;;;;;;;9.27;8.18;;;9.90;99.90;;;;;;5053991;28;20037;-74
2021/05/21 01:16:20;;;;;;;11.85;7.78;;;10.00;99.90;;;;;;5054190;28;20071;-73
2021/05/21 01:18:46;;;;;;;9.63;7.88;;;9.90;99.90;;;;;;5054422;28;20521;-71
2021/05/21 01:21:12;;;;;;;11.60;8.68;;;9.90;99.90;;;;;;5054149;28;20490;-74
2021/05/21 01:23:38;;;;;;;8.85;7.78;;;9.90;99.90;;;;;;5054118;28;20025;-72
2021/05/21 01:26:04;;;;;;;8.18;7.38;;;9.90;99.90;;;;;;5054112;28;20371;-73
2021/05/21 01:28:30;;;;;;;11.57;8.30;;;9.90;99.90;;;;;;5053680;28;20091;-74
2021/05/21 01:30:57;;;;;;;9.90;8.07;;;9.90;99.90;;;;;;5053975;28;20028;-74
2021/05/21 01:33:23;;;;;;;8.60;7.40;;;9.90;99.90;;;;;;5053996;28;20017;-72
2021/05/21 01:35:50;;;;;;;10.10;7.43;;;9.90;99.90;;;;;;5053913;28;20024;-74
2021/05/21 01:38:16;;;;;;;9.32;7.65;;;9.90;99.90;;;;;;5053975;28;20056;-74
2021/05/21 01:40:44;;;;;;;8.18;7.32;;;10.00;99.90;;;;;;5053746;28;20375;-73
2021/05/21 01:43:12;;;;;;;8.95;7.13;;;10.10;99.90;;;;;;5053560;28;20474;-73
2021/05/21 01:45:39;;;;;;;9.10;6.63;;;10.10;99.90;;;;;;5053593;28;20139;-74
2021/05/21 01:48:07;;;;;;;6.85;6.10;;;10.10;99.90;;;;;;5052421;28;20549;-74
2021/05/21 01:50:33;;;;;;;7.93;7.13;;;10.10;99.90;;;;;;5053593;28;20028;-74
2021/05/21 01:52:59;;;;;;;10.00;7.60;;;10.00;99.90;;;;;;5053835;28;20140;-73
2021/05/21 01:55:25;;;;;;;7.57;6.85;;;10.00;99.90;;;;;;5053516;28;20348;-73
2021/05/21 01:57:51;;;;;;;7.38;6.63;;;10.00;99.90;;;;;;5052121;28;20025;-73
2021/05/21 02:00:18;;;;;;;7.72;6.80;;;10.00;99.90;;;;;;5053433;28;20414;-74
2021/05/21 02:02:44;;;;;;;9.45;6.68;;;10.10;99.90;;;;;;5053365;28;20021;-74
2021/05/21 02:05:11;;;;;;;6.95;5.65;;;10.10;99.90;;;;;;5053638;28;20454;-74
2021/05/21 02:07:37;;;;;;;8.88;6.68;;;10.10;99.90;;;;;;5053285;28;20096;-74
2021/05/21 02:10:08;;;;;;;8.18;6.50;;;10.00;99.90;;;;;;5053260;28;20056;-73
2021/05/21 02:12:35;;;;;;;8.30;6.50;;;10.10;99.90;;;;;;5053379;28;20083;-73
2021/05/21 02:15:05;;;;;;;8.00;6.25;;;10.00;99.90;;;;;;5053651;28;20052;-73
2021/05/21 02:17:31;;;;;;;8.85;6.50;;;10.00;99.90;;;;;;5052028;28;20442;-73
2021/05/21 02:19:59;;;;;;;8.35;7.22;;;10.10;99.90;;;;;;5053249;28;20021;-74
2021/05/21 02:22:26;;;;;;;7.70;6.35;;;10.10;99.90;;;;;;5053254;28;20017;-71
2021/05/21 02:24:58;;;;;;;7.40;6.30;;;10.00;99.90;;;;;;5053325;28;20028;-74
2021/05/21 02:27:25;;;;;;;8.50;6.13;;;10.10;99.90;;;;;;5053138;28;20028;-74
2021/05/21 02:29:51;;;;;;;7.65;5.50;;;10.10;99.90;;;;;;5053030;28;20084;-73
2021/05/21 02:32:17;;;;;;;7.75;5.60;;;10.20;99.90;;;;;;5053070;28;20029;-73
2021/05/21 02:34:43;;;;;;;7.90;5.78;;;10.20;99.90;;;;;;5051893;28;20025;-72
2021/05/21 02:37:10;;;;;;;8.52;6.65;;;10.20;99.90;;;;;;5053406;28;20493;-73
2021/05/21 02:39:36;;;;;;;9.25;7.43;;;10.20;99.90;;;;;;5053301;28;20492;-74
2021/05/21 02:42:03;;;;;;;10.68;7.47;;;10.20;99.90;;;;;;5053012;28;20041;-74
2021/05/21 02:44:29;;;;;;;9.85;7.00;;;10.10;99.90;;;;;;5052996;28;20018;-71
2021/05/21 02:46:55;;;;;;;8.23;6.50;;;10.10;99.90;;;;;;5052980;28;20370;-74
2021/05/21 02:49:21;;;;;;;7.88;5.97;;;10.20;99.90;;;;;;5054786;28;20033;-73
2021/05/21 02:51:52;;;;;;;8.00;5.88;;;10.20;99.90;;;;;;5055603;28;20028;-74
2021/05/21 02:54:19;;;;;;;9.55;6.85;;;10.20;99.90;;;;;;5056994;28;20025;-73
2021/05/21 02:56:45;;;;;;;10.07;6.72;;;10.20;99.90;;;;;;5056929;28;20059;-74
2021/05/21 02:59:10;;;;;;;8.60;6.22;;;10.20;99.90;;;;;;5056622;28;20447;-73
2021/05/21 03:01:37;;;;;;;9.75;6.57;;;10.20;99.90;;;;;;5055274;28;20067;-74
2021/05/21 03:04:03;;;;;;;10.27;7.03;;;10.30;99.90;;;;;;5056839;28;20074;-73
2021/05/21 03:06:29;;;;;;;9.77;6.30;;;10.30;99.90;;;;;;5056809;28;20031;-73
2021/05/21 03:08:55;;;;;;;7.32;5.60;;;10.30;99.90;;;;;;5056660;28;20104;-74
2021/05/21 03:11:22;;;;;;;7.68;5.40;;;10.30;99.90;;;;;;5056362;28;20103;-73
2021/05/21 03:13:48;;;;;;;7.65;5.30;;;10.30;99.90;;;;;;5056480;28;20487;-75
2021/05/21 03:16:14;;;;;;;5.28;4.55;;;10.30;99.90;;;;;;5056331;28;20045;-74
2021/05/21 03:18:40;;;;;;;6.05;4.78;;;10.40;99.90;;;;;;5056652;28;20014;-73
2021/05/21 03:21:06;;;;;;;6.85;5.13;;;10.40;99.90;;;;;;5056416;28;20020;-71
2021/05/21 03:23:32;;;;;;;6.60;5.32;;;10.40;99.90;;;;;;5056549;28;20083;-73
2021/05/21 03:25:58;;;;;;;8.68;5.55;;;10.40;99.90;;;;;;5056169;28;20029;-72
2021/05/21 03:28:24;;;;;;;6.53;4.95;;;10.50;99.90;;;;;;5056030;28;20045;-72
2021/05/21 03:30:51;;;;;;;6.35;5.03;;;10.50;99.90;;;;;;5056635;28;20373;-72
2021/05/21 03:33:17;;;;;;;5.97;4.88;;;10.50;99.90;;;;;;5056094;28;20024;-74
2021/05/21 03:35:43;;;;;;;6.97;4.43;;;10.50;99.90;;;;;;5056493;28;20021;-74
2021/05/21 03:38:10;;;;;;;5.40;4.43;;;10.60;99.90;;;;;;5055985;28;20020;-74
2021/05/21 03:40:37;;;;;;;7.65;4.43;;;10.60;99.90;;;;;;5054579;28;20025;-74
2021/05/21 03:43:04;;;;;;;7.07;4.88;;;10.60;99.90;;;;;;5056120;28;20021;-74
2021/05/21 03:45:31;;;;;;;7.95;5.47;;;10.60;99.90;;;;;;5056154;28;20151;-72
2021/05/21 03:48:04;;;;;;;6.68;5.10;;;10.60;99.90;;;;;;5056016;28;20023;-73
2021/05/21 03:50:30;;;;;;;5.65;4.65;;;10.60;99.90;;;;;;5055778;28;20032;-73
2021/05/21 03:52:56;;;;;;;7.97;6.30;;;10.70;99.90;;;;;;5055642;28;20033;-74
2021/05/21 03:55:23;;;;;;;9.35;5.40;;;10.70;99.90;;;;;;5056011;28;20028;-72
2021/05/21 03:57:49;;;;;;;10.88;6.38;;;10.70;99.90;;;;;;5055952;28;20029;-72
2021/05/21 04:00:20;;;;;;;8.20;6.25;;;10.70;99.90;;;;;;5055697;28;20022;-72
2021/05/21 04:02:49;;;;;;;8.88;5.88;;;10.70;99.90;;;;;;5056356;28;20025;-74
2021/05/21 04:05:20;;;;;;;9.10;5.32;;;10.70;99.90;;;;;;5055721;28;20059;-74
2021/05/21 04:07:47;;;;;;;7.43;4.70;;;10.80;99.90;;;;;;5055713;28;20021;-74
2021/05/21 04:10:13;;;;;;;7.43;4.78;;;10.90;99.90;;;;;;5055440;28;20025;-74
2021/05/21 04:12:39;;;;;;;6.18;4.30;;;10.90;99.90;;;;;;5055356;28;20027;-73
2021/05/21 04:15:06;;;;;;;6.75;4.03;;;11.00;99.90;;;;;;5055591;28;20542;-74
2021/05/21 04:17:35;;;;;;;5.18;4.38;;;11.10;99.90;;;;;;5055120;28;20013;-72
2021/05/21 04:20:03;;;;;;;6.60;4.10;;;11.10;99.90;;;;;;5055428;28;20040;-73
2021/05/21 04:22:28;;;;;;;4.47;3.78;;;11.10;99.90;;;;;;5055169;28;20474;-71
2021/05/21 04:24:55;;;;;;;5.25;3.60;;;11.20;99.90;;;;;;5055374;28;20025;-73
2021/05/21 04:27:21;;;;;;;4.95;3.75;;;11.20;99.90;;;;;;5055095;28;20029;-73
2021/05/21 04:29:47;;;;;;;5.32;3.60;;;11.20;99.90;;;;;;5054822;28;20140;-73
2021/05/21 04:32:13;;;;;;;7.55;3.85;;;11.30;99.90;;;;;;5055153;28;20096;-72
2021/05/21 04:34:40;;;;;;;4.85;3.50;;;11.30;99.90;;;;;;5055142;28;20067;-71
2021/05/21 04:37:06;;;;;;;4.45;3.50;;;11.30;99.90;;;;;;5053720;28;20048;-70
2021/05/21 04:39:32;;;;;;;4.53;3.88;;;11.40;99.90;;;;;;5054947;28;20017;-74
2021/05/21 04:41:58;;;;;;;5.10;3.75;;;11.40;99.90;;;;;;5055133;28;20020;-73
2021/05/21 04:44:24;;;;;;;4.78;3.60;;;11.50;99.90;;;;;;5054960;28;20112;-73
2021/05/21 04:46:50;;;;;;;6.47;3.60;;;11.50;99.90;;;;;;5054669;28;20067;-72
2021/05/21 04:49:32;;;;;;;6.47;3.30;;;11.60;99.90;;;;;;5055056;28;20021;-73
2021/05/21 04:52:03;;;;;;;4.20;3.35;;;11.60;99.90;;;;;;5055013;28;20040;-73
2021/05/21 04:54:29;;;;;;;5.22;3.72;;;11.70;99.90;;;;;;5054743;28;20025;-73
2021/05/21 04:56:56;;;;;;;6.53;4.18;;;11.70;99.90;;;;;;5054894;28;20043;-73
2021/05/21 04:59:22;;;;;;;7.15;4.43;;;11.80;99.90;;;;;;5054671;28;20059;-73
2021/05/21 05:01:49;;;;;;;5.65;3.60;;;11.90;99.90;;;;;;5054608;28;20028;-74
2021/05/21 05:04:15;;;;;;;6.25;3.20;;;11.90;99.90;;;;;;5054702;28;20113;-74
2021/05/21 05:06:42;;;;;;;6.60;3.22;;;12.00;99.90;;;;;;5054578;28;20024;-73
2021/05/21 05:09:09;;;;;;;5.25;3.30;;;12.10;99.90;;;;;;5054209;28;20053;-72
2021/05/21 05:11:37;;;;;;;4.00;3.40;;;12.10;99.90;;;;;;5052467;28;20021;-72
2021/05/21 05:14:04;;;;;;;4.00;2.90;;;12.10;99.90;;;;;;5054669;28;20498;-74
2021/05/21 05:16:30;;;;;;;5.53;3.17;;;12.10;99.90;;;;;;5054579;28;20555;-70
2021/05/21 05:18:56;;;;;;;6.05;3.03;;;12.20;99.90;;;;;;5054691;28;20057;-71
2021/05/21 05:21:22;;;;;;;6.93;4.20;;;12.20;99.90;;;;;;5054115;28;20467;-73
2021/05/21 05:23:49;;;;;;;7.07;4.68;;;12.20;99.90;;;;;;5054195;28;20498;-73
2021/05/21 05:26:17;;;;;;;7.53;4.43;;;12.30;99.90;;;;;;5054171;28;20100;-74
2021/05/21 05:28:47;;;;;;;6.78;3.60;;;12.30;99.90;;;;;;5053899;28;20060;-74
2021/05/21 05:31:13;;;;;;;5.85;3.83;;;12.40;99.90;;;;;;5053781;28;20040;-71
2021/05/21 05:33:42;;;;;;;5.47;3.42;;;12.50;99.90;;;;;;5054094;28;20025;-70
2021/05/21 05:36:09;;;;;;;5.65;3.40;;;12.50;99.90;;;;;;5053937;28;20090;-74
2021/05/21 05:38:35;;;;;;;6.07;3.20;;;12.60;99.90;;;;;;5054078;28;20475;-72
2021/05/21 05:41:01;;;;;;;3.72;2.97;;;12.70;99.90;;;;;;5052610;28;20028;-74
2021/05/21 05:43:27;;;;;;;4.85;3.10;;;12.70;99.90;;;;;;5052267;28;20071;-70
2021/05/21 05:45:53;;;;;;;5.82;3.60;;;12.80;99.90;;;;;;5054120;28;20028;-73
2021/05/21 05:48:19;;;;;;;3.90;3.00;;;12.90;99.90;;;;;;5053689;28;20479;-72
2021/05/21 05:50:47;;;;;;;4.88;3.40;;;12.90;99.90;;;;;;5052452;28;20025;-73
2021/05/21 05:53:13;;;;;;;6.18;3.40;;;13.00;99.90;;;;;;5052349;28;20095;-72
2021/05/21 05:55:41;;;;;;;4.47;3.30;;;13.10;99.90;;;;;;5053694;28;20056;-70
2021/05/21 05:58:10;;;;;;;3.58;2.85;;;13.20;99.90;;;;;;5053417;28;20024;-74
2021/05/21 06:00:37;;;;;;;4.95;3.40;;;13.30;99.90;;;;;;5053446;28;20028;-73
2021/05/21 06:03:10;;;;;;;5.70;2.85;;;13.40;99.90;;;;;;5053744;28;20479;-74
2021/05/21 06:05:37;;;;;;;4.22;3.20;;;13.40;99.90;;;;;;5052313;28;20025;-74
2021/05/21 06:08:05;;;;;;;5.28;3.03;;;13.50;99.90;;;;;;5053122;28;20122;-71
2021/05/21 06:10:35;;;;;;;3.17;2.72;;;13.60;99.90;;;;;;5053324;28;20540;-71
2021/05/21 06:13:06;;;;;;;5.88;3.15;;;13.60;99.90;;;;;;5053457;28;20117;-73
2021/05/21 06:15:33;;;;;;;11.95;5.47;;;13.60;99.90;;;;;;5053659;28;20032;-74
2021/05/21 06:17:59;;;;;;;16.77;9.73;;;13.80;99.90;;;;;;5052849;28;20024;-71
2021/05/21 06:20:27;;;;;;;11.80;7.57;;;13.80;99.90;;;;;;5052939;28;20018;-73
2021/05/21 06:22:53;;;;;;;4.38;3.15;;;13.90;99.90;;;;;;5053577;28;20081;-73
2021/05/21 06:26:11;;;;;;;5.15;3.42;;;14.00;99.90;;;;;;5057577;28;20025;-71
2021/05/21 06:28:10;;;;;;;4.40;3.10;;;14.10;99.90;;;;;;5053891;28;20044;-71
2021/05/21 06:30:37;;;;;;;5.80;3.60;;;14.20;99.90;;;;;;5057775;28;20070;-74
2021/05/21 06:33:03;;;;;;;5.50;3.85;;;14.40;99.90;;;;;;5057505;28;20390;-72
2021/05/21 06:35:30;;;;;;;6.85;3.90;;;14.40;99.90;;;;;;5057493;28;20025;-72
2021/05/21 06:37:56;;;;;;;6.22;4.25;;;14.50;99.90;;;;;;5056173;28;20884;-74
2021/05/21 06:40:22;;;;;;;9.15;4.10;;;14.60;99.90;;;;;;5057148;28;20052;-72
2021/05/21 06:42:48;;;;;;;5.13;3.50;;;14.70;99.90;;;;;;5057372;28;20055;-70
2021/05/21 06:45:15;;;;;;;4.28;3.28;;;14.80;99.90;;;;;;5057473;28;20017;-72
2021/05/21 06:47:42;;;;;;;3.75;3.30;;;15.00;99.90;;;;;;5057158;28;20096;-73
2021/05/21 06:50:09;;;;;;;4.60;3.30;;;15.20;99.90;;;;;;5057120;28;20021;-72
2021/05/21 06:52:35;;;;;;;5.63;3.80;;;15.10;99.90;;;;;;5056683;28;20020;-71
2021/05/21 06:55:02;;;;;;;4.65;2.90;;;15.20;99.90;;;;;;5057224;28;20463;-73
2021/05/21 06:57:28;;;;;;;4.70;3.15;;;15.20;99.90;;;;;;5056948;28;20047;-73
2021/05/21 06:59:54;;;;;;;3.42;2.63;;;15.40;99.90;;;;;;5056751;28;20025;-70
2021/05/21 07:02:20;;;;;;;5.60;3.15;;;15.40;99.90;;;;;;5056989;28;20370;-69
2021/05/21 07:04:46;;;;;;;4.00;2.97;;;15.50;99.90;;;;;;5056870;28;20096;-70
2021/05/21 07:07:12;;;;;;;6.68;3.20;;;15.60;99.90;;;;;;5056772;28;20021;-74
2021/05/21 07:09:38;;;;;;;4.13;3.17;;;15.60;99.90;;;;;;5057183;28;20070;-72
2021/05/21 07:12:04;;;;;;;4.60;3.10;;;15.70;99.90;;;;;;5056432;28;20440;-70
2021/05/21 07:14:31;;;;;;;5.13;3.20;;;15.80;99.90;;;;;;5056669;28;20102;-70
2021/05/21 07:16:57;;;;;;;4.05;2.40;;;15.90;99.90;;;;;;5056628;28;20158;-70
2021/05/21 07:19:23;;;;;;;5.05;3.10;;;16.00;99.90;;;;;;5056410;28;20514;-72
2021/05/21 07:21:49;;;;;;;5.70;3.33;;;16.00;99.90;;;;;;5056335;28;20032;-71
2021/05/21 07:24:15;;;;;;;4.07;2.90;;;16.20;99.90;;;;;;5056425;28;20025;-73
2021/05/21 07:26:41;;;;;;;4.78;3.67;;;16.20;99.90;;;;;;5056600;28;20127;-73
2021/05/21 07:29:07;;;;;;;6.15;2.50;;;16.40;99.90;;;;;;5056033;28;20129;-72
2021/05/21 07:31:34;;;;;;;4.65;3.10;;;;;;;;;;5054863;28;20499;-71
2021/05/21 07:34:00;;;;;;;4.43;2.85;;;16.70;99.90;;;;;;5055956;28;20111;-70
2021/05/21 07:36:31;;;;;;;3.95;2.65;;;16.80;99.90;;;;;;5056205;28;20029;-72
2021/05/21 07:38:59;;;;;;;3.80;2.95;;;16.80;99.90;;;;;;5056307;28;20090;-71
2021/05/21 07:41:26;;;;;;;4.72;2.95;;;17.00;99.90;;;;;;5056184;28;20092;-73
2021/05/21 07:43:54;;;;;;;6.07;2.90;;;17.00;99.90;;;;;;5056098;28;20017;-72
2021/05/21 07:46:21;;;;;;;3.80;2.90;;;17.10;99.90;;;;;;5056045;28;20356;-73
2021/05/21 07:48:49;;;;;;;4.10;3.20;;;17.30;99.90;;;;;;5054569;28;20387;-72
2021/05/21 07:51:15;;;;;;;7.28;3.47;;;17.30;99.90;;;;;;5056067;28;20374;-75
2021/05/21 07:53:42;;;;;;;3.85;2.60;;;17.50;99.90;;;;;;5055991;28;20371;-76
2021/05/21 07:56:08;;;;;;;5.97;3.00;;;17.60;99.90;;;;;;5054949;28;20028;-74
2021/05/21 07:58:34;;;;;;;5.05;3.00;;;17.70;99.90;;;;;;5056169;28;20021;-74
2021/05/21 08:01:01;;;;;;;4.25;3.10;;;17.60;99.90;;;;;;5056040;28;20054;-74
2021/05/21 08:03:27;;;;;;;4.70;2.83;;;17.70;99.90;;;;;;5055612;28;20017;-72
2021/05/21 08:05:53;;;;;;;4.97;3.08;;;17.60;98.40;;;;;;5054314;28;20053;-72
2021/05/21 08:08:22;;;;;;;3.65;2.72;;;17.70;99.90;;;;;;5055487;28;20017;-70
2021/05/21 08:10:53;;;;;;;6.70;3.75;;;17.80;99.90;;;;;;5055493;28;20497;-73
2021/05/21 08:13:20;;;;;;;4.13;2.97;;;18.00;99.90;;;;;;5055650;28;20029;-73
2021/05/21 08:15:45;;;;;;;4.10;2.92;;;18.10;99.90;;;;;;5055373;28;20021;-74
2021/05/21 08:18:12;;;;;;;4.18;2.58;;;18.30;99.40;;;;;;5054152;28;20373;-75
2021/05/21 08:20:39;;;;;;;4.45;3.08;;;18.10;97.60;;;;;;5055482;28;20075;-71
2021/05/21 08:23:05;;;;;;;5.72;2.80;;;18.00;97.50;;;;;;5055340;28;20410;-72
2021/05/21 08:25:31;;;;;;;4.38;3.08;;;18.30;99.90;;;;;;5055195;28;20025;-74
2021/05/21 08:27:57;;;;;;;5.55;3.72;;;18.50;99.90;;;;;;5055225;28;20109;-75
2021/05/21 08:30:24;;;;;;;4.22;2.83;;;18.40;99.60;;;;;;5054987;28;20045;-75
2021/05/21 08:32:53;;;;;;;3.70;2.90;;;18.70;98.90;;;;;;5054981;28;20355;-72
2021/05/21 08:35:20;;;;;;;4.85;2.92;;;18.80;98.80;;;;;;5055205;28;20029;-74
2021/05/21 08:37:47;;;;;;;4.18;2.53;;;;;;;;;;5055139;28;20025;-71
2021/05/21 08:40:21;;;;;;;4.22;2.60;;;18.90;97.20;;;;;;5055019;28;20051;-71
2021/05/21 08:42:56;;;;;;;4.45;2.70;;;18.90;98.40;;;;;;5055267;28;20025;-72
2021/05/21 08:45:24;;;;;;;5.95;2.72;;;19.10;96.60;;;;;;5052985;28;20120;-75
2021/05/21 08:47:50;;;;;;;4.53;2.40;;;19.40;96.60;;;;;;5054473;28;20043;-73
2021/05/21 08:50:16;;;;;;;4.88;2.47;;;19.40;98.50;;;;;;5053580;28;20087;-72
2021/05/21 08:52:42;;;;;;;4.75;3.00;;;19.30;95.80;;;;;;5054814;28;20021;-74
2021/05/21 08:55:10;;;;;;;3.60;2.30;;;19.70;98.00;;;;;;5054854;28;20071;-74
2021/05/21 08:57:36;;;;;;;7.18;2.75;;;19.70;94.90;;;;;;5054949;28;20021;-72
2021/05/21 09:00:03;;;;;;;4.25;2.10;;;19.90;96.70;;;;;;5054712;28;20057;-76
2021/05/21 09:02:30;;;;;;;7.53;3.95;;;19.90;95.80;;;;;;5054758;28;20048;-74
2021/05/21 09:04:58;;;;;;;24.33;10.73;;;19.90;94.90;;;;;;5054623;28;20017;-75
2021/05/21 09:07:33;;;;;;;16.98;7.82;;;20.20;95.00;;;;;;5052965;28;20029;-75
2021/05/21 09:10:05;;;;;;;;;;;20.20;96.00;;;;;;5054988;28;20509;-73
2021/05/21 09:12:42;;;;;;;5.53;3.03;;;20.30;96.20;;;;;;5054289;28;19909;-75
2021/05/21 09:15:16;;;;;;;3.75;2.72;;;20.50;93.30;;;;;;5054222;28;20025;-74
2021/05/21 09:17:55;;;;;;;3.67;2.57;;;20.40;92.50;;;;;;5053044;28;20029;-73
2021/05/21 09:20:32;;;;;;;5.35;2.40;;;20.60;94.30;;;;;;5054544;28;20465;-74
2021/05/21 09:23:02;;;;;;;3.28;2.15;;;20.60;94.90;;;;;;5054224;28;20017;-74
2021/05/21 09:25:39;;;;;;;3.72;2.50;;;20.60;92.90;;;;;;5054096;28;20021;-71
2021/05/21 09:28:26;;;;;;;4.85;2.33;;;20.80;92.70;;;;;;5054070;28;20056;-71
2021/05/21 09:31:17;;;;;;;5.85;2.10;;;21.00;93.30;;;;;;5050165;28;20048;-74
2021/05/21 09:33:47;;;;;;;4.18;2.00;;;21.00;92.40;;;;;;5053794;28;20372;-71
2021/05/21 09:36:16;;;;;;;3.97;2.00;;;21.20;91.20;;;;;;5054104;28;20036;-72
2021/05/21 09:38:46;;;;;;;2.60;1.90;;;21.00;91.20;;;;;;5053912;28;20017;-72
2021/05/21 09:41:12;;;;;;;3.35;2.22;;;21.00;91.00;;;;;;5054093;28;20055;-70
2021/05/21 09:43:38;;;;;;;3.35;2.00;;;21.10;92.80;;;;;;5053986;28;20601;-73
2021/05/21 09:46:12;;;;;;;3.53;1.90;;;21.10;91.50;;;;;;5053304;28;20025;-73
2021/05/21 09:48:38;;;;;;;2.67;1.73;;;21.50;92.90;;;;;;5053456;28;20435;-72
2021/05/21 09:51:05;;;;;;;3.78;1.95;;;21.50;87.50;;;;;;5072982;28;20447;-74
2021/05/21 09:53:33;;;;;;;3.35;1.98;;;21.40;89.50;;;;;;5073839;28;20036;-72
2021/05/21 09:56:03;;;;;;;3.60;1.98;;;21.90;91.30;;;;;;5073194;28;20056;-73
2021/05/21 09:58:34;;;;;;;3.95;1.77;;;21.70;86.90;;;;;;5072369;28;20017;-73
2021/05/21 10:01:20;;;;;;;3.63;1.90;;;21.60;86.90;;;;;;5073471;28;20060;-70
2021/05/21 10:04:08;;;;;;;4.55;2.03;;;21.60;87.90;;;;;;5073520;28;20027;-72
2021/05/21 10:06:35;;;;;;;3.83;1.90;;;21.80;84.60;;;;;;5073777;28;20024;-72
2021/05/21 10:09:01;;;;;;;3.50;1.80;;;22.00;87.50;;;;;;5073917;28;20038;-73
2021/05/21 10:11:32;;;;;;;2.58;1.50;;;21.80;83.50;;;;;;5073326;28;20051;-72
2021/05/21 10:13:58;;;;;;;2.40;1.70;;;22.30;88.10;;;;;;5073416;28;20046;-70
2021/05/21 10:16:25;;;;;;;2.40;1.50;;;;;;;;;;5073344;28;20351;-73
2021/05/21 10:18:53;;;;;;;2.83;1.60;;;22.20;80.30;;;;;;5073508;28;20028;-75
2021/05/21 10:21:21;;;;;;;4.40;1.30;;;21.90;75.40;;;;;;5073523;28;20465;-73
2021/05/21 10:24:05;;;;;;;1.90;1.40;;;21.90;65.80;;;;;;5073436;28;20017;-73
2021/05/21 10:26:38;;;;;;;3.13;2.22;;;22.10;72.90;;;;;;5073267;28;20048;-74
2021/05/21 10:29:26;;;;;;;3.47;1.70;;;22.10;72.30;;;;;;5073125;28;20402;-75
2021/05/21 10:32:09;;;;;;;4.43;2.03;;;22.30;80.30;;;;;;5073123;28;20041;-75
2021/05/21 10:35:15;;;;;;;2.03;1.77;;;22.50;81.20;;;;;;5073394;28;20116;-77
2021/05/21 10:37:41;;;;;;;4.10;1.70;;;22.60;67.80;;;;;;5072204;28;20027;-77
2021/05/21 10:40:11;;;;;;;2.05;1.45;;;22.70;78.70;;;;;;5073885;28;20024;-71
2021/05/21 10:42:44;;;;;;;3.45;1.65;;;22.80;79.30;;;;;;5073059;28;20021;-74
2021/05/21 10:45:20;;;;;;;3.13;1.58;;;22.30;72.90;;;;;;5073363;28;20024;-73
2021/05/21 10:47:56;;;;;;;2.60;1.40;;;22.60;75.80;;;;;;5073349;28;20016;-75
2021/05/21 10:50:22;;;;;;;2.40;1.40;;;22.30;66.70;;;;;;5073131;28;20021;-73
2021/05/21 10:52:54;;;;;;;3.22;1.40;;;;;;;;;;5073250;28;20025;-73
2021/05/21 10:55:39;;;;;;;2.10;1.50;;;22.90;75.00;;;;;;5073306;28;20104;-73
2021/05/21 10:58:06;;;;;;;2.75;1.80;;;;;;;;;;5073143;28;20052;-72
2021/05/21 11:00:34;;;;;;;4.03;1.50;;;23.40;69.10;;;;;;5072762;28;20074;-75
2021/05/21 11:03:00;;;;;;;5.05;1.80;;;23.40;63.80;;;;;;5073060;28;20028;-74
2021/05/21 11:05:32;;;;;;;2.25;1.60;;;23.20;61.10;;;;;;5072737;28;20025;-72
2021/05/21 11:08:25;;;;;;;2.58;1.50;;;23.30;65.30;;;;;;5073061;28;20366;-74
2021/05/21 11:10:51;;;;;;;2.88;1.50;;;22.90;66.10;;;;;;5074029;28;20436;-71
2021/05/21 11:13:18;;;;;;;5.25;1.60;;;23.00;66.50;;;;;;5076633;28;20111;-72
2021/05/21 11:15:47;;;;;;;2.58;1.50;;;23.30;71.30;;;;;;5076171;28;20028;-70
2021/05/21 11:18:26;;;;;;;3.53;1.60;;;23.40;70.40;;;;;;5076700;28;20119;-74
2021/05/21 11:21:13;;;;;;;6.82;1.50;;;23.80;65.60;;;;;;5076629;28;20371;-73
2021/05/21 11:23:41;;;;;;;4.10;1.48;;;23.50;61.10;;;;;;5076500;28;20039;-73
2021/05/21 11:26:19;;;;;;;2.63;1.50;;;24.00;66.30;;;;;;5076656;28;20364;-73
2021/05/21 11:29:02;;;;;;;3.63;1.95;;;23.90;61.50;;;;;;5076561;28;20571;-74
2021/05/21 11:31:31;;;;;;;3.55;2.63;;;23.90;60.30;;;;;;5076699;28;20029;-76
2021/05/21 11:33:59;;;;;;;9.50;6.93;;;23.60;58.80;;;;;;5076506;28;20025;-75
2021/05/21 11:36:27;;;;;;;2.60;1.50;;;24.30;65.70;;;;;;5076518;28;20017;-74
2021/05/21 11:38:54;;;;;;;2.08;1.30;;;24.50;67.40;;;;;;5076594;28;20029;-74
2021/05/21 11:41:29;;;;;;;3.58;1.48;;;24.60;58.00;;;;;;5074827;28;20025;-74
2021/05/21 11:44:04;;;;;;;4.03;1.40;;;24.70;62.20;;;;;;5075786;28;20021;-71
2021/05/21 11:46:35;;;;;;;1.67;1.27;;;24.30;60.20;;;;;;5076456;28;20032;-73
2021/05/21 11:49:01;;;;;;;1.90;1.30;;;24.50;57.20;;;;;;5074843;28;20036;-73
2021/05/21 11:51:26;;;;;;;3.83;1.40;;;24.20;60.20;;;;;;5075724;28;20032;-72
2021/05/21 11:54:01;;;;;;;2.15;1.40;;;24.40;57.90;;;;;;5075747;28;20478;-70
2021/05/21 11:56:34;;;;;;;2.53;1.52;;;24.00;57.90;;;;;;5075772;28;20035;-72
2021/05/21 11:59:12;;;;;;;3.42;1.48;;;24.20;61.10;;;;;;5073497;28;20032;-71
2021/05/21 12:01:47;;;;;;;4.70;1.70;;;24.70;61.80;;;;;;5075341;28;20035;-74
2021/05/21 12:04:15;;;;;;;4.03;1.70;;;24.70;61.30;;;;;;5075977;28;20027;-72
2021/05/21 12:06:43;;;;;;;5.05;2.85;;;24.70;62.90;;;;;;5075431;28;20539;-73
2021/05/21 12:09:34;;;;;;;4.68;2.45;;;24.50;58.70;;;;;;5075508;28;20023;-72
2021/05/21 12:12:00;;;;;;;2.17;1.60;;;24.50;56.90;;;;;;5075300;28;20043;-70
2021/05/21 12:14:35;;;;;;;2.13;1.40;;;24.70;55.40;;;;;;5075544;28;20029;-73
2021/05/21 12:17:01;;;;;;;4.78;1.50;;;24.70;59.20;;;;;;5074252;28;20420;-74
2021/05/21 12:19:27;;;;;;;3.53;1.58;;;24.50;59.40;;;;;;5075538;28;20025;-74
2021/05/21 12:21:55;;;;;;;1.95;1.15;;;24.60;59.90;;;;;;5074056;28;20013;-75
2021/05/21 12:24:24;;;;;;;2.88;1.40;;;24.20;52.00;;;;;;5075695;28;20378;-73
2021/05/21 12:26:52;;;;;;;3.50;1.20;;;24.50;58.20;;;;;;5075367;28;20492;-71
2021/05/21 12:29:19;;;;;;;2.75;1.40;;;24.90;57.50;;;;;;5075069;28;20048;-73
2021/05/21 12:31:48;;;;;;;2.22;1.38;;;25.00;59.20;;;;;;5075055;28;20355;-72
2021/05/21 12:34:18;;;;;;;2.42;1.30;;;;;;;;;;5075390;28;20031;-72
2021/05/21 12:36:44;;;;;;;3.67;1.35;;;25.20;56.40;;;;;;5075314;28;20020;-72
2021/05/21 12:39:11;;;;;;;1.67;1.10;;;25.40;59.30;;;;;;5073875;28;20024;-72
2021/05/21 12:41:41;;;;;;;2.20;1.20;;;25.30;55.90;;;;;;5075296;28;20020;-72
2021/05/21 12:44:15;;;;;;;2.70;1.23;;;24.90;56.30;;;;;;5075157;28;20025;-72
2021/05/21 12:46:54;;;;;;;3.75;1.40;;;25.00;57.20;;;;;;5074879;28;20025;-72
2021/05/21 12:49:34;;;;;;;2.33;1.10;;;25.00;52.50;;;;;;5074837;28;20025;-71
2021/05/21 12:52:02;;;;;;;2.35;1.20;;;24.90;51.60;;;;;;5075205;28;20067;-71
2021/05/21 12:54:41;;;;;;;2.28;1.33;;;24.90;51.30;;;;;;5074969;28;20066;-74